Time;durP1;ratioP1;P1;durP2;ratioP2;P2;SDS_P1;SDS_P2;PMS_P1;PMS_P2;Temp;Humidity;BMP_temperature;BMP_pressure;BME280_temperature;BME280_humidity;BME280_pressure;Samples;Min_cycle;Max_cycle;Signal;HPM_P1;HPM_P2
2023/10/07 00:02:26;;;;;;;;;;;11.20;85.60;;;;;;5008381;28;19985;-68
2023/10/07 00:04:59;;;;;;;;;;;11.20;85.60;;;;;;5014146;28;19925;-67
2023/10/07 00:07:32;;;;;;;;;;;11.10;85.50;;;;;;5013517;28;19930;-67
2023/10/07 00:10:06;;;;;;;;;;;11.10;85.60;;;;;;5015930;28;19991;-67
2023/10/07 00:12:42;;;;;;;;;;;11.00;85.70;;;;;;5027509;28;19940;-67
2023/10/07 00:15:15;;;;;;;;;;;11.10;85.70;;;;;;5017659;28;19960;-67
2023/10/07 00:17:43;;;;;;;;;;;11.10;85.60;;;;;;5014054;28;19925;-66
2023/10/07 00:20:18;;;;;;;;;;;11.10;85.60;;;;;;5014760;28;19933;-68
2023/10/07 00:22:54;;;;;;;;;;;11.10;85.50;;;;;;5015891;28;19929;-66
2023/10/07 00:25:30;;;;;;;;;;;11.10;85.60;;;;;;5015921;28;20003;-67
2023/10/07 00:28:09;;;;;;;;;;;11.00;85.40;;;;;;4986122;28;19930;-66
2023/10/07 00:30:43;;;;;;;;;;;11.00;85.40;;;;;;5018424;28;19931;-68
2023/10/07 00:33:20;;;;;;;;;;;11.00;85.60;;;;;;5011345;28;19976;-69
2023/10/07 00:35:54;;;;;;;;;;;10.90;85.60;;;;;;4982278;28;19983;-70
2023/10/07 00:38:37;;;;;;;;;;;10.90;85.90;;;;;;4994011;28;19926;-70
2023/10/07 00:41:15;;;;;;;;;;;11.00;86.00;;;;;;5014973;28;19925;-71
2023/10/07 00:43:53;;;;;;;;;;;11.00;86.00;;;;;;5005069;28;20035;-71
2023/10/07 00:46:29;;;;;;;;;;;11.00;86.00;;;;;;5018696;28;19933;-70
2023/10/07 00:49:09;;;;;;;;;;;11.00;86.00;;;;;;5014787;28;19933;-71
2023/10/07 00:51:46;;;;;;;;;;;11.00;86.00;;;;;;4994448;28;20403;-70
2023/10/07 00:54:30;;;;;;;;;;;11.00;85.90;;;;;;4986417;28;19929;-71
2023/10/07 00:57:11;;;;;;;;;;;11.00;85.70;;;;;;4978562;28;19926;-71
2023/10/07 00:59:51;;;;;;;;;;;11.00;85.60;;;;;;4989367;28;20223;-71
2023/10/07 01:02:30;;;;;;;;;;;10.90;85.70;;;;;;5014675;28;19979;-70
2023/10/07 01:05:06;;;;;;;;;;;10.90;85.60;;;;;;5012750;28;19925;-69
2023/10/07 01:07:40;;;;;;;;;;;10.90;85.70;;;;;;5012030;28;19940;-70
2023/10/07 01:10:13;;;;;;;;;;;10.90;85.80;;;;;;5014042;28;20016;-71
2023/10/07 01:12:51;;;;;;;;;;;10.90;85.80;;;;;;5002105;28;19929;-71
2023/10/07 01:15:29;;;;;;;;;;;10.90;86.00;;;;;;4987600;28;19930;-70
2023/10/07 01:18:05;;;;;;;;;;;10.90;86.40;;;;;;5013397;28;19936;-70
2023/10/07 01:20:59;;;;;;;;;;;10.90;86.70;;;;;;5009340;28;19937;-70
2023/10/07 01:23:33;;;;;;;;;;;11.00;86.90;;;;;;5012647;28;19933;-69
2023/10/07 01:26:15;;;;;;;;;;;11.00;87.10;;;;;;5014844;28;19935;-70
2023/10/07 01:28:50;;;;;;;;;;;11.10;87.20;;;;;;5025832;28;19930;-69
2023/10/07 01:31:23;;;;;;;;;;;11.10;87.40;;;;;;5012056;28;20372;-70
2023/10/07 01:34:01;;;;;;;;;;;11.10;87.40;;;;;;5032745;28;19937;-70
2023/10/07 01:36:35;;;;;;;;;;;11.10;87.40;;;;;;5018653;28;19934;-71
2023/10/07 01:39:10;;;;;;;;;;;11.10;87.40;;;;;;5013687;28;20028;-69
2023/10/07 01:41:45;;;;;;;;;;;11.10;87.50;;;;;;5015677;28;20012;-70
2023/10/07 01:44:24;;;;;;;;;;;11.10;87.50;;;;;;5010801;28;19925;-72
2023/10/07 01:46:57;;;;;;;;;;;11.10;87.30;;;;;;5009082;28;19932;-73
2023/10/07 01:49:30;;;;;;;;;;;11.10;87.30;;;;;;5019141;28;19924;-73
2023/10/07 01:52:05;;;;;;;;;;;11.10;87.30;;;;;;4996216;28;19925;-73
2023/10/07 01:54:42;;;;;;;;;;;11.00;87.20;;;;;;5001276;28;19936;-73
2023/10/07 01:57:17;;;;;;;;;;;11.00;87.10;;;;;;4983464;28;20296;-72
2023/10/07 01:59:52;;;;;;;;;;;10.90;87.00;;;;;;4982896;28;19930;-74
2023/10/07 02:02:26;;;;;;;;;;;10.90;86.80;;;;;;4991845;28;19933;-72
2023/10/07 02:05:04;;;;;;;;;;;10.90;86.70;;;;;;5031612;28;19936;-72
2023/10/07 02:07:39;;;;;;;;;;;10.90;86.70;;;;;;5017178;28;19930;-73
2023/10/07 02:10:23;;;;;;;;;;;10.90;86.70;;;;;;5021206;28;20291;-73
2023/10/07 02:12:56;;;;;;;;;;;10.80;86.70;;;;;;5013761;28;20027;-73
2023/10/07 02:15:36;;;;;;;;;;;10.80;86.70;;;;;;5016409;28;20448;-73
2023/10/07 02:18:15;;;;;;;;;;;10.80;86.70;;;;;;5016296;28;19932;-72
2023/10/07 02:20:52;;;;;;;;;;;10.80;86.90;;;;;;5013289;28;20678;-72
2023/10/07 02:23:35;;;;;;;;;;;10.80;87.00;;;;;;5019768;28;19929;-72
2023/10/07 02:26:15;;;;;;;;;;;10.90;86.90;;;;;;5021069;28;20031;-73
2023/10/07 02:28:51;;;;;;;;;;;10.80;87.10;;;;;;5011482;28;20009;-73
2023/10/07 02:31:26;;;;;;;;;;;10.80;87.20;;;;;;5002402;28;19925;-73
2023/10/07 02:34:07;;;;;;;;;;;10.80;87.30;;;;;;5016637;28;19980;-73
2023/10/07 02:36:51;;;;;;;;;;;10.80;87.20;;;;;;5014694;28;20020;-73
2023/10/07 02:39:26;;;;;;;;;;;10.80;87.20;;;;;;5014298;28;20019;-73
2023/10/07 02:42:03;;;;;;;;;;;10.80;87.20;;;;;;5019032;28;19929;-73
2023/10/07 02:44:37;;;;;;;;;;;10.70;87.10;;;;;;5014885;28;19929;-73
2023/10/07 02:47:12;;;;;;;;;;;10.70;86.80;;;;;;5014018;28;19929;-73
2023/10/07 02:49:49;;;;;;;;;;;10.70;86.70;;;;;;5002572;28;19929;-72
2023/10/07 02:52:24;;;;;;;;;;;10.70;86.70;;;;;;5021600;28;20368;-71
2023/10/07 02:55:14;;;;;;;;;;;10.70;86.60;;;;;;5015569;28;19933;-73
2023/10/07 02:57:55;;;;;;;;;;;10.70;86.50;;;;;;5015452;28;19957;-72
2023/10/07 03:00:35;;;;;;;;;;;10.60;86.50;;;;;;4994038;28;20370;-72
2023/10/07 03:03:20;;;;;;;;;;;10.60;86.60;;;;;;5027295;28;19929;-72
2023/10/07 03:06:00;;;;;;;;;;;10.60;86.70;;;;;;5000593;28;19937;-72
2023/10/07 03:08:44;;;;;;;;;;;10.60;86.60;;;;;;4998756;28;19926;-72
2023/10/07 03:11:22;;;;;;;;;;;10.60;86.50;;;;;;4996005;28;20369;-72
2023/10/07 03:13:58;;;;;;;;;;;10.60;86.40;;;;;;4985075;28;19948;-72
2023/10/07 03:16:35;;;;;;;;;;;10.60;86.40;;;;;;5013211;28;20012;-73
2023/10/07 03:19:20;;;;;;;;;;;10.50;86.30;;;;;;5024993;28;19929;-72
2023/10/07 03:22:06;;;;;;;;;;;10.50;86.30;;;;;;4997435;28;20488;-71
2023/10/07 03:24:42;;;;;;;;;;;10.50;86.40;;;;;;4982869;28;19976;-72
2023/10/07 03:27:22;;;;;;;;;;;10.40;86.50;;;;;;5019156;28;19933;-72
2023/10/07 03:36:07;;;;;;;;;;;10.40;86.70;;;;;;5011614;28;19936;-72
2023/10/07 03:38:42;;;;;;;;;;;10.40;86.70;;;;;;5015836;28;20020;-72
2023/10/07 03:41:21;;;;;;;;;;;10.30;86.90;;;;;;5018083;28;20015;-73
2023/10/07 03:43:54;;;;;;;;;;;10.40;87.00;;;;;;5012245;28;20174;-73
2023/10/07 03:46:29;;;;;;;;;;;10.40;87.10;;;;;;5014638;28;19929;-73
2023/10/07 03:48:56;;;;;;;;;;;10.40;87.00;;;;;;5019619;28;19925;-73
2023/10/07 03:51:30;;;;;;;;;;;10.30;87.30;;;;;;5013010;28;20004;-72
2023/10/07 03:54:10;;;;;;;;;;;10.30;87.40;;;;;;5009079;28;19976;-73
2023/10/07 03:56:42;;;;;;;;;;;10.30;87.60;;;;;;5016154;28;20079;-72
2023/10/07 03:59:15;;;;;;;;;;;10.40;87.60;;;;;;5013515;28;20011;-72
2023/10/07 04:01:53;;;;;;;;;;;10.40;87.50;;;;;;5015196;28;19960;-71
2023/10/07 04:04:28;;;;;;;;;;;10.40;87.40;;;;;;5017669;28;19933;-65
2023/10/07 04:07:00;;;;;;;;;;;10.30;87.60;;;;;;5004406;28;19937;-66
2023/10/07 04:09:35;;;;;;;;;;;10.30;87.80;;;;;;4996721;28;20366;-67
2023/10/07 04:12:09;;;;;;;;;;;10.30;88.00;;;;;;4997635;28;19932;-66
2023/10/07 04:14:42;;;;;;;;;;;10.30;88.10;;;;;;5009001;28;20047;-65
2023/10/07 04:17:17;;;;;;;;;;;10.40;88.10;;;;;;5017524;28;20378;-67
2023/10/07 04:19:53;;;;;;;;;;;10.40;88.20;;;;;;5011917;28;20476;-67
2023/10/07 04:22:26;;;;;;;;;;;10.40;88.20;;;;;;5007004;28;19929;-67
2023/10/07 04:25:07;;;;;;;;;;;10.40;88.30;;;;;;5018966;28;19925;-66
2023/10/07 04:27:42;;;;;;;;;;;10.40;88.20;;;;;;5018877;28;19926;-67
2023/10/07 04:30:17;;;;;;;;;;;10.40;88.40;;;;;;5013749;28;20016;-66
2023/10/07 04:32:53;;;;;;;;;;;10.50;88.40;;;;;;5012793;28;19933;-65
2023/10/07 04:35:30;;;;;;;;;;;10.50;88.50;;;;;;5011261;28;19961;-66
2023/10/07 04:38:18;;;;;;;;;;;10.50;88.50;;;;;;5012499;28;19928;-65
2023/10/07 04:43:49;;;;;;;;;;;10.50;88.60;;;;;;5012816;28;20071;-67
2023/10/07 04:46:23;;;;;;;;;;;10.60;88.60;;;;;;5016308;28;19929;-65
2023/10/07 04:48:59;;;;;;;;;;;10.60;88.70;;;;;;5014292;28;19936;-65
2023/10/07 04:54:35;;;;;;;;;;;10.60;88.90;;;;;;4996246;28;19963;-66
2023/10/07 04:57:10;;;;;;;;;;;10.60;88.80;;;;;;5008118;28;20360;-66
2023/10/07 04:59:46;;;;;;;;;;;10.50;89.00;;;;;;5010333;28;19934;-66
2023/10/07 05:02:20;;;;;;;;;;;10.60;89.00;;;;;;5011770;28;19967;-65
2023/10/07 05:04:56;;;;;;;;;;;10.60;89.10;;;;;;5015146;28;19939;-66
2023/10/07 05:07:28;;;;;;;;;;;10.60;89.10;;;;;;5015673;28;19933;-64
2023/10/07 05:10:02;;;;;;;;;;;10.60;89.00;;;;;;5013797;28;19926;-66
2023/10/07 05:12:34;;;;;;;;;;;10.60;89.10;;;;;;5017680;28;19936;-72
2023/10/07 05:15:08;;;;;;;;;;;10.70;89.20;;;;;;5012713;28;19929;-72
2023/10/07 05:17:40;;;;;;;;;;;10.70;89.00;;;;;;5014593;28;19925;-71
2023/10/07 05:20:27;;;;;;;;;;;10.70;89.10;;;;;;5006994;28;20262;-71
2023/10/07 05:23:03;;;;;;;;;;;10.80;89.10;;;;;;4993944;28;19933;-69
2023/10/07 05:25:29;;;;;;;;;;;10.90;89.00;;;;;;4988602;28;19934;-71
2023/10/07 05:28:04;;;;;;;;;;;10.90;89.20;;;;;;4993920;28;19932;-71
2023/10/07 05:30:37;;;;;;;;;;;10.90;89.10;;;;;;4990492;28;19930;-70
2023/10/07 05:33:10;;;;;;;;;;;11.00;89.00;;;;;;4993253;28;19925;-71
2023/10/07 05:35:45;;;;;;;;;;;11.00;89.00;;;;;;4989983;28;19930;-71
2023/10/07 05:38:19;;;;;;;;;;;11.00;88.90;;;;;;4989187;28;20007;-71
2023/10/07 05:40:46;;;;;;;;;;;11.10;89.10;;;;;;5012603;28;20376;-72
2023/10/07 05:43:19;;;;;;;;;;;11.10;89.10;;;;;;5011983;28;19940;-71
2023/10/07 05:45:54;;;;;;;;;;;11.10;89.20;;;;;;5005438;28;20381;-71
2023/10/07 05:48:27;;;;;;;;;;;11.10;89.20;;;;;;5002432;28;19933;-71
2023/10/07 05:51:02;;;;;;;;;;;11.10;89.00;;;;;;5003072;28;19929;-72
2023/10/07 05:53:37;;;;;;;;;;;11.10;89.20;;;;;;5013878;28;20013;-71
2023/10/07 05:56:11;;;;;;;;;;;11.10;88.90;;;;;;5014842;28;19929;-72
2023/10/07 05:58:46;;;;;;;;;;;11.10;89.00;;;;;;5004063;28;20553;-72
2023/10/07 06:01:19;;;;;;;;;;;11.10;89.30;;;;;;5014271;28;19932;-71
2023/10/07 06:03:47;;;;;;;;;;;11.10;89.20;;;;;;5011674;28;19929;-71
2023/10/07 06:06:21;;;;;;;;;;;11.20;89.10;;;;;;5010894;28;19962;-72
2023/10/07 06:08:54;;;;;;;;;;;11.20;89.00;;;;;;5012813;28;19995;-72
2023/10/07 06:11:31;;;;;;;;;;;11.30;89.20;;;;;;5013587;28;19929;-72
2023/10/07 06:14:06;;;;;;;;;;;11.30;89.20;;;;;;5010800;28;20396;-71
2023/10/07 06:16:42;;;;;;;;;;;11.30;89.30;;;;;;5006883;28;19999;-71
2023/10/07 06:19:17;;;;;;;;;;;11.40;89.40;;;;;;5009942;28;20107;-70
2023/10/07 06:21:52;;;;;;;;;;;11.40;89.20;;;;;;5022868;28;20269;-71
2023/10/07 06:24:26;;;;;;;;;;;11.40;89.10;;;;;;5002140;28;19926;-73
2023/10/07 06:26:59;;;;;;;;;;;11.50;89.40;;;;;;5006715;28;19926;-72
2023/10/07 06:29:32;;;;;;;;;;;11.50;89.30;;;;;;5016429;28;20369;-74
2023/10/07 06:32:22;;;;;;;;;;;11.50;89.30;;;;;;5015121;28;19938;-72
2023/10/07 06:34:56;;;;;;;;;;;11.60;89.30;;;;;;5019143;28;19933;-73
2023/10/07 06:37:31;;;;;;;;;;;11.60;89.40;;;;;;5023320;28;20431;-74
2023/10/07 06:40:21;;;;;;;;;;;11.70;89.40;;;;;;5019961;28;20020;-74
2023/10/07 06:42:56;;;;;;;;;;;11.70;89.60;;;;;;5022187;28;20463;-72
2023/10/07 06:45:35;;;;;;;;;;;11.70;89.60;;;;;;5023355;28;20020;-71
2023/10/07 06:48:09;;;;;;;;;;;11.70;89.50;;;;;;5021681;28;20031;-73
2023/10/07 06:50:45;;;;;;;;;;;11.70;89.60;;;;;;5022146;28;19925;-73
2023/10/07 06:53:22;;;;;;;;;;;11.70;89.60;;;;;;5022877;28;19925;-73
2023/10/07 06:56:02;;;;;;;;;;;11.80;89.60;;;;;;5020748;28;19929;-74
2023/10/07 06:58:35;;;;;;;;;;;11.90;89.50;;;;;;5021077;28;19995;-74
2023/10/07 07:01:17;;;;;;;;;;;11.90;89.50;;;;;;5022347;28;19969;-74
2023/10/07 07:03:51;;;;;;;;;;;11.90;89.60;;;;;;5019774;28;19927;-74
2023/10/07 07:06:34;;;;;;;;;;;11.90;89.70;;;;;;5021935;28;19932;-73
2023/10/07 07:09:41;;;;;;;;;;;11.90;89.60;;;;;;5021232;28;19930;-74
2023/10/07 07:12:04;;;;;;;;;;;11.90;89.50;;;;;;4984970;28;20388;-73
2023/10/07 07:14:41;;;;;;;;;;;11.90;89.40;;;;;;4985871;28;20020;-73
2023/10/07 07:23:10;;;;;;;;;;;12.00;89.30;;;;;;4981833;28;19929;-74
2023/10/07 07:25:39;;;;;;;;;;;12.00;89.40;;;;;;5012188;28;20004;-74
2023/10/07 07:28:14;;;;;;;;;;;12.00;89.30;;;;;;5021941;28;19930;-74
2023/10/07 07:30:47;;;;;;;;;;;12.10;89.40;;;;;;5016332;28;19925;-73
2023/10/07 07:33:28;;;;;;;;;;;12.10;89.30;;;;;;4999484;28;19980;-67
2023/10/07 07:36:07;;;;;;;;;;;12.10;89.40;;;;;;4998277;28;20020;-67
2023/10/07 07:38:44;;;;;;;;;;;12.10;89.40;;;;;;5016176;28;19933;-66
2023/10/07 07:41:34;;;;;;;;;;;12.10;89.60;;;;;;5020691;28;19932;-67
2023/10/07 07:44:11;;;;;;;;;;;12.10;89.50;;;;;;5021435;28;20340;-68
2023/10/07 07:46:52;;;;;;;;;;;12.20;89.40;;;;;;5019461;28;19933;-67
2023/10/07 07:49:27;;;;;;;;;;;12.20;89.40;;;;;;5021490;28;19941;-67
2023/10/07 07:52:00;;;;;;;;;;;12.20;89.40;;;;;;5009757;28;19944;-66
2023/10/07 07:54:33;;;;;;;;;;;12.30;89.30;;;;;;5014176;28;19957;-67
2023/10/07 07:57:08;;;;;;;;;;;12.30;89.20;;;;;;5020157;28;19949;-68
2023/10/07 07:59:43;;;;;;;;;;;12.30;89.10;;;;;;5021358;28;20388;-67
2023/10/07 08:02:17;;;;;;;;;;;12.40;89.30;;;;;;5018645;28;19988;-67
2023/10/07 08:04:50;;;;;;;;;;;12.40;89.20;;;;;;5020929;28;19990;-67
2023/10/07 08:07:27;;;;;;;;;;;12.40;89.20;;;;;;5012207;28;20487;-67
2023/10/07 08:10:03;;;;;;;;;;;12.40;89.20;;;;;;5018636;28;19929;-67
2023/10/07 08:12:38;;;;;;;;;;;12.40;89.20;;;;;;5021153;28;19931;-67
2023/10/07 08:15:21;;;;;;;;;;;12.50;89.20;;;;;;5018265;28;20028;-67
2023/10/07 08:17:56;;;;;;;;;;;12.50;89.20;;;;;;5017889;28;19936;-66
2023/10/07 08:20:34;;;;;;;;;;;12.60;89.00;;;;;;5019707;28;19940;-65
2023/10/07 08:23:21;;;;;;;;;;;12.60;89.10;;;;;;5019792;28;19932;-67
2023/10/07 08:25:58;;;;;;;;;;;12.60;89.10;;;;;;5017822;28;19956;-67
2023/10/07 08:28:42;;;;;;;;;;;12.60;89.00;;;;;;5018071;28;19925;-66
2023/10/07 08:31:18;;;;;;;;;;;12.60;89.10;;;;;;5017590;28;19925;-67
2023/10/07 08:34:04;;;;;;;;;;;12.60;88.90;;;;;;5018840;28;19929;-66
2023/10/07 08:36:39;;;;;;;;;;;12.70;88.90;;;;;;5020074;28;19925;-68
2023/10/07 08:39:26;;;;;;;;;;;12.70;88.70;;;;;;5020263;28;19925;-67
2023/10/07 08:42:08;;;;;;;;;;;12.90;88.50;;;;;;5019268;28;20015;-68
2023/10/07 08:45:03;;;;;;;;;;;13.10;88.10;;;;;;5018642;28;20448;-75
2023/10/07 08:47:49;;;;;;;;;;;13.20;87.60;;;;;;5020118;28;20404;-75
2023/10/07 08:50:23;;;;;;;;;;;13.40;87.50;;;;;;5006479;28;20396;-74
2023/10/07 08:53:06;;;;;;;;;;;13.60;87.20;;;;;;4999445;28;20381;-74
2023/10/07 08:55:40;;;;;;;;;;;13.60;87.10;;;;;;5000400;28;19999;-74
2023/10/07 08:58:11;;;;;;;;;;;13.60;86.70;;;;;;4999015;28;19925;-75
2023/10/07 09:00:47;;;;;;;;;;;13.60;87.00;;;;;;5000287;28;19936;-74
2023/10/07 09:03:26;;;;;;;;;;;13.70;86.60;;;;;;5000246;28;19930;-75
2023/10/07 09:05:59;;;;;;;;;;;13.80;86.50;;;;;;5000214;28;19926;-75
2023/10/07 09:08:33;;;;;;;;;;;13.80;86.50;;;;;;5004547;28;19937;-75
2023/10/07 09:11:07;;;;;;;;;;;13.90;86.20;;;;;;5019033;28;19925;-75
2023/10/07 09:13:41;;;;;;;;;;;13.90;86.30;;;;;;5019646;28;19929;-75
2023/10/07 09:16:15;;;;;;;;;;;14.00;86.10;;;;;;5027745;28;19925;-75
2023/10/07 09:18:55;;;;;;;;;;;14.10;85.70;;;;;;5019083;28;19933;-74
2023/10/07 09:21:33;;;;;;;;;;;14.10;85.70;;;;;;5000238;28;20001;-75
2023/10/07 09:24:13;;;;;;;;;;;14.10;85.50;;;;;;5016171;28;19955;-73
2023/10/07 09:26:56;;;;;;;;;;;14.20;85.40;;;;;;5019522;28;19940;-73
2023/10/07 09:29:32;;;;;;;;;;;14.20;85.20;;;;;;5018208;28;19925;-74
2023/10/07 09:32:16;;;;;;;;;;;14.20;84.80;;;;;;5018520;28;19935;-74
2023/10/07 09:34:55;;;;;;;;;;;14.30;84.80;;;;;;5019806;28;19929;-75
2023/10/07 09:37:32;;;;;;;;;;;14.20;84.40;;;;;;5018794;28;19948;-75
2023/10/07 09:40:19;;;;;;;;;;;14.20;84.70;;;;;;5015164;28;20008;-76
2023/10/07 09:42:57;;;;;;;;;;;14.20;84.50;;;;;;5000475;28;19956;-74
2023/10/07 09:45:34;;;;;;;;;;;14.20;84.70;;;;;;4999736;28;19933;-74
2023/10/07 09:48:09;;;;;;;;;;;14.20;84.70;;;;;;4983748;28;20017;-75
2023/10/07 09:50:45;;;;;;;;;;;14.20;84.80;;;;;;4999660;28;20377;-74
2023/10/07 09:53:36;;;;;;;;;;;14.20;84.60;;;;;;4999499;28;19929;-72
2023/10/07 09:56:21;;;;;;;;;;;14.30;84.70;;;;;;4996522;28;20286;-72
2023/10/07 09:59:02;;;;;;;;;;;14.20;84.80;;;;;;4995689;28;20024;-72
2023/10/07 10:01:39;;;;;;;;;;;14.30;84.80;;;;;;4993537;28;19969;-71
2023/10/07 10:04:43;;;;;;;;;;;14.30;84.70;;;;;;4997029;28;19930;-72
2023/10/07 10:07:32;;;;;;;;;;;14.30;84.60;;;;;;4959994;28;19926;-71
2023/10/07 10:10:07;;;;;;;;;;;14.40;84.60;;;;;;5015940;28;20395;-72
2023/10/07 10:12:56;;;;;;;;;;;14.50;84.40;;;;;;5020822;28;19929;-72
2023/10/07 10:21:22;;;;;;;;;;;15.00;83.80;;;;;;5024008;28;19925;-72
2023/10/07 10:24:02;;;;;;;;;;;15.30;83.40;;;;;;5022368;28;19926;-71
2023/10/07 10:26:36;;;;;;;;;;;15.50;83.00;;;;;;5020146;28;20012;-72
2023/10/07 10:29:15;;;;;;;;;;;15.60;82.80;;;;;;5023371;28;20388;-72
2023/10/07 10:31:49;;;;;;;;;;;15.60;82.60;;;;;;5021854;28;19933;-72
2023/10/07 10:34:23;;;;;;;;;;;15.60;82.60;;;;;;5021553;28;19929;-72
2023/10/07 10:36:57;;;;;;;;;;;15.80;82.50;;;;;;5021130;28;19929;-72
2023/10/07 10:39:31;;;;;;;;;;;15.90;82.00;;;;;;5022289;28;19933;-72
2023/10/07 10:42:09;;;;;;;;;;;15.80;81.90;;;;;;5022484;28;20428;-72
2023/10/07 10:44:46;;;;;;;;;;;15.90;82.00;;;;;;5021322;28;20355;-71
2023/10/07 10:47:21;;;;;;;;;;;16.00;81.80;;;;;;5022993;28;19929;-72
2023/10/07 10:49:55;;;;;;;;;;;16.10;81.40;;;;;;5021520;28;19965;-73
2023/10/07 10:52:29;;;;;;;;;;;16.20;81.50;;;;;;5020412;28;19975;-72
2023/10/07 10:55:06;;;;;;;;;;;16.30;81.30;;;;;;5022153;28;20162;-72
2023/10/07 10:57:40;;;;;;;;;;;16.60;80.90;;;;;;5017301;28;19933;-71
2023/10/07 11:00:19;;;;;;;;;;;16.60;80.50;;;;;;5015866;28;19929;-73
2023/10/07 11:02:53;;;;;;;;;;;16.60;80.60;;;;;;5000449;28;19934;-70
2023/10/07 11:05:21;;;;;;;;;;;16.50;80.60;;;;;;4998477;28;19932;-71
2023/10/07 11:07:55;;;;;;;;;;;16.60;80.50;;;;;;4998736;28;19925;-70
2023/10/07 11:10:29;;;;;;;;;;;16.80;80.30;;;;;;4997467;28;19926;-70
2023/10/07 11:13:08;;;;;;;;;;;17.00;80.00;;;;;;5003163;28;20044;-70
2023/10/07 11:15:41;;;;;;;;;;;17.00;79.50;;;;;;4999738;28;19926;-70
2023/10/07 11:18:12;;;;;;;;;;;16.90;79.50;;;;;;5008796;28;19926;-70
2023/10/07 11:20:45;;;;;;;;;;;16.90;79.50;;;;;;5020191;28;20438;-71
2023/10/07 11:23:19;;;;;;;;;;;16.90;79.70;;;;;;5019764;28;20308;-70
2023/10/07 11:25:54;;;;;;;;;;;16.80;79.60;;;;;;5021016;28;19933;-71
2023/10/07 11:28:33;;;;;;;;;;;16.80;79.70;;;;;;5001928;28;19937;-72
2023/10/07 11:31:07;;;;;;;;;;;16.70;79.70;;;;;;5002060;28;19930;-70
2023/10/07 11:33:49;;;;;;;;;;;16.90;79.70;;;;;;5001322;28;19984;-70
2023/10/07 11:36:23;;;;;;;;;;;16.90;79.50;;;;;;4999799;28;20020;-70
2023/10/07 11:38:57;;;;;;;;;;;17.00;79.40;;;;;;4992250;28;19930;-71
2023/10/07 11:41:32;;;;;;;;;;;17.00;79.30;;;;;;5020122;28;19929;-72
2023/10/07 11:44:09;;;;;;;;;;;17.00;79.40;;;;;;5015056;28;19929;-70
2023/10/07 11:46:43;;;;;;;;;;;17.00;79.20;;;;;;5000141;28;19936;-71
2023/10/07 11:49:17;;;;;;;;;;;17.00;79.20;;;;;;5007677;28;20337;-71
2023/10/07 11:51:51;;;;;;;;;;;17.00;79.30;;;;;;5019749;28;19985;-71
2023/10/07 11:54:24;;;;;;;;;;;17.00;79.30;;;;;;5019415;28;20385;-72
2023/10/07 11:56:58;;;;;;;;;;;17.10;79.30;;;;;;5008848;28;20420;-71
2023/10/07 11:59:33;;;;;;;;;;;17.20;79.10;;;;;;5016866;28;20028;-72
2023/10/07 12:02:09;;;;;;;;;;;17.40;79.10;;;;;;5013990;28;19930;-71
2023/10/07 12:04:46;;;;;;;;;;;17.50;79.00;;;;;;5017859;28;19929;-71
2023/10/07 12:07:20;;;;;;;;;;;17.60;78.80;;;;;;5020362;28;19932;-71
2023/10/07 12:09:53;;;;;;;;;;;17.60;78.60;;;;;;5018908;28;20296;-71
2023/10/07 12:12:27;;;;;;;;;;;17.60;78.70;;;;;;5018169;28;19925;-70
2023/10/07 12:15:01;;;;;;;;;;;17.60;78.60;;;;;;5019072;28;20380;-73
2023/10/07 12:17:40;;;;;;;;;;;17.60;78.60;;;;;;5019259;28;20418;-72
2023/10/07 12:20:14;;;;;;;;;;;17.60;78.70;;;;;;5018886;28;20008;-73
2023/10/07 12:22:47;;;;;;;;;;;17.70;78.60;;;;;;5021415;28;19936;-70
2023/10/07 12:25:21;;;;;;;;;;;17.60;78.60;;;;;;5002528;28;19931;-70
2023/10/07 12:27:56;;;;;;;;;;;17.40;78.70;;;;;;5020682;28;19961;-71
2023/10/07 12:30:30;;;;;;;;;;;17.40;78.90;;;;;;5017379;28;20337;-70
2023/10/07 12:33:03;;;;;;;;;;;17.40;79.10;;;;;;4998823;28;19938;-71
2023/10/07 12:35:30;;;;;;;;;;;17.40;78.90;;;;;;5000033;28;20344;-72
2023/10/07 12:38:04;;;;;;;;;;;17.40;78.90;;;;;;4999630;28;19929;-72
2023/10/07 12:40:39;;;;;;;;;;;17.50;78.80;;;;;;4999954;28;19935;-71
2023/10/07 12:43:14;;;;;;;;;;;17.60;78.90;;;;;;4999789;28;19955;-71
2023/10/07 12:45:48;;;;;;;;;;;17.70;78.70;;;;;;4997797;28;19951;-71
2023/10/07 12:48:22;;;;;;;;;;;17.80;78.50;;;;;;5012514;28;20360;-71
2023/10/07 12:50:56;;;;;;;;;;;17.90;78.60;;;;;;5015936;28;19929;-71
2023/10/07 12:53:29;;;;;;;;;;;17.90;78.20;;;;;;5019208;28;20016;-71
2023/10/07 12:56:12;;;;;;;;;;;18.00;78.30;;;;;;5018771;28;20451;-72
2023/10/07 12:58:48;;;;;;;;;;;18.10;78.10;;;;;;5018783;28;19976;-71
2023/10/07 13:01:22;;;;;;;;;;;18.10;78.00;;;;;;5019482;28;20285;-72
2023/10/07 13:03:55;;;;;;;;;;;18.10;77.70;;;;;;5018394;28;19981;-70
2023/10/07 13:06:30;;;;;;;;;;;18.10;77.60;;;;;;5018788;28;20288;-70
2023/10/07 13:09:03;;;;;;;;;;;18.10;77.60;;;;;;5017092;28;19933;-70
2023/10/07 13:11:30;;;;;;;;;;;18.10;77.70;;;;;;5011997;28;19925;-71
2023/10/07 13:14:04;;;;;;;;;;;18.10;77.50;;;;;;5017607;28;20343;-72
2023/10/07 13:16:39;;;;;;;;;;;18.10;77.40;;;;;;5017980;28;19925;-71
2023/10/07 13:19:16;;;;;;;;;;;18.10;77.20;;;;;;5019366;28;19926;-71
2023/10/07 13:21:50;;;;;;;;;;;18.10;76.90;;;;;;5017815;28;19932;-70
2023/10/07 13:24:24;;;;;;;;;;;18.10;77.10;;;;;;5033370;28;20384;-70
2023/10/07 13:26:57;;;;;;;;;;;18.10;77.20;;;;;;5019025;28;20007;-71
2023/10/07 13:29:25;;;;;;;;;;;18.00;77.50;;;;;;5016723;28;19933;-70
2023/10/07 13:31:58;;;;;;;;;;;18.00;77.70;;;;;;5018714;28;19972;-70
2023/10/07 13:34:38;;;;;;;;;;;18.00;77.80;;;;;;5017552;28;19932;-71
2023/10/07 13:37:11;;;;;;;;;;;18.00;77.90;;;;;;5016683;28;19929;-71
2023/10/07 13:39:45;;;;;;;;;;;18.10;77.70;;;;;;5015521;28;19925;-72
2023/10/07 13:42:18;;;;;;;;;;;18.00;77.70;;;;;;5018677;28;19925;-71
2023/10/07 13:44:53;;;;;;;;;;;18.00;77.60;;;;;;5023776;28;20292;-70
2023/10/07 13:47:27;;;;;;;;;;;18.10;77.90;;;;;;5024592;28;20028;-70
2023/10/07 13:50:00;;;;;;;;;;;18.10;77.60;;;;;;5026060;28;19931;-70
2023/10/07 13:52:40;;;;;;;;;;;18.10;77.70;;;;;;5025529;28;20003;-70
2023/10/07 13:55:22;;;;;;;;;;;18.10;77.70;;;;;;5009488;28;19934;-70
2023/10/07 13:57:55;;;;;;;;;;;18.10;77.70;;;;;;5017593;28;19929;-70
2023/10/07 14:00:36;;;;;;;;;;;18.10;77.70;;;;;;5023791;28;19979;-70
2023/10/07 14:03:19;;;;;;;;;;;18.10;77.70;;;;;;4996559;28;19926;-71
2023/10/07 14:05:55;;;;;;;;;;;18.10;77.60;;;;;;5023565;28;20027;-71
2023/10/07 14:08:29;;;;;;;;;;;18.10;77.90;;;;;;5024273;28;19947;-70
2023/10/07 14:11:02;;;;;;;;;;;18.20;77.90;;;;;;5023034;28;19925;-70
2023/10/07 14:13:35;;;;;;;;;;;18.20;77.50;;;;;;4992564;28;19933;-71
2023/10/07 14:16:11;;;;;;;;;;;18.20;77.30;;;;;;5023215;28;20296;-71
2023/10/07 14:18:44;;;;;;;;;;;18.30;77.60;;;;;;5023732;28;19929;-71
2023/10/07 14:21:19;;;;;;;;;;;18.20;77.70;;;;;;5024540;28;19929;-71
2023/10/07 14:23:53;;;;;;;;;;;18.20;77.70;;;;;;4994957;28;19936;-71
2023/10/07 14:26:32;;;;;;;;;;;18.20;77.80;;;;;;5020717;28;20010;-72
2023/10/07 14:29:06;;;;;;;;;;;18.30;77.90;;;;;;5024170;28;20929;-71
2023/10/07 14:31:43;;;;;;;;;;;18.30;77.70;;;;;;5024861;28;20061;-72
2023/10/07 14:34:17;;;;;;;;;;;18.30;77.80;;;;;;5025184;28;20300;-63
2023/10/07 14:36:50;;;;;;;;;;;18.30;77.90;;;;;;5024947;28;19929;-64
2023/10/07 14:39:23;;;;;;;;;;;18.30;78.10;;;;;;5022165;28;19936;-65
2023/10/07 14:41:56;;;;;;;;;;;18.30;78.10;;;;;;5024600;28;19957;-64
2023/10/07 14:44:29;;;;;;;;;;;18.40;77.80;;;;;;5024167;28;19936;-65
2023/10/07 14:47:06;;;;;;;;;;;18.30;77.80;;;;;;5024325;28;19929;-64
2023/10/07 14:49:39;;;;;;;;;;;18.30;77.80;;;;;;5024294;28;20443;-64
2023/10/07 14:52:07;;;;;;;;;;;18.30;77.60;;;;;;5024309;28;20109;-63
2023/10/07 14:54:41;;;;;;;;;;;18.30;77.80;;;;;;5023619;28;19929;-64
2023/10/07 14:57:17;;;;;;;;;;;18.30;77.60;;;;;;5020975;28;19983;-63
2023/10/07 14:59:51;;;;;;;;;;;18.30;77.80;;;;;;5022167;28;19925;-63
2023/10/07 15:02:25;;;;;;;;;;;18.30;77.70;;;;;;5021802;28;19936;-64
2023/10/07 15:05:00;;;;;;;;;;;18.30;77.30;;;;;;5020471;28;19929;-63
2023/10/07 15:07:33;;;;;;;;;;;18.30;77.40;;;;;;5021393;28;20024;-63
2023/10/07 15:10:07;;;;;;;;;;;18.20;77.50;;;;;;5021787;28;19931;-64
2023/10/07 15:12:40;;;;;;;;;;;18.20;77.50;;;;;;5021742;28;19965;-64
2023/10/07 15:15:14;;;;;;;;;;;18.20;77.80;;;;;;5021840;28;19955;-63
2023/10/07 15:17:49;;;;;;;;;;;18.20;77.80;;;;;;5022243;28;19961;-63
2023/10/07 15:20:22;;;;;;;;;;;18.20;77.90;;;;;;5021419;28;19956;-63
2023/10/07 15:22:56;;;;;;;;;;;18.20;77.70;;;;;;5020669;28;19933;-63
2023/10/07 15:25:29;;;;;;;;;;;18.20;77.30;;;;;;5021400;28;20384;-64
2023/10/07 15:28:03;;;;;;;;;;;18.20;77.30;;;;;;5019620;28;20028;-64
2023/10/07 15:30:39;;;;;;;;;;;18.20;77.10;;;;;;5020090;28;20398;-65
2023/10/07 15:33:16;;;;;;;;;;;18.10;77.50;;;;;;5020337;28;19933;-63